NCAR-RAP Real-Time Weather Data

Output produced by METARs form (26 August 2016  23:23 UTC)
found at http://weather.rap.ucar.edu/surface/
 
Conditions at: KSDF observed 26 August 2016  22:56 UTC
Temperature: 32.8°C (91°F)
Dewpoint: 20.0°C (68°F) [RH = 47%]
Pressure (altimeter): 30.05 inches Hg (1017.7 mb)
[Sea-level pressure: 1016.8 mb]
Winds: from the ESE (120 degrees) at 7 MPH (6 knots; 3.1 m/s)
Visibility: 10 or more miles (16+ km)
Ceiling: at least 12,000 feet AGL
Clouds: few clouds at 5000 feet AGL
scattered clouds at 25000 feet AGL
Present Weather: no significant weather observed at this time
KSDF 262256Z 12006KT 10SM FEW050 SCT250 33/20 A3005 RMK AO2 SLP168 TCU DSNT NE T03280200